CheckWX is a tool to help pilots better visualize weather data.  It is not intended as a substitute for an official pre-flight weather briefing.

02:10:49 UTC

CYPQ METAR
Peterborough Airport
Peterborough, , Canada
Current

11 mins ago

CYPQ 180200Z AUTO 07007KT 040V110 9SM OVC090 M08/M15 A2994 RMK SLP153
Observed
Feb-18 @ 02:00 UTC
Wind
  • 070° at 7 KTS
Visibility
9 SM
Flight Rules
VFR
Cloud Levels
  • Overcast at 9,000' AGL
Temperature
-8°C / 18°F
Dewpoint
-15°C / 5°F
Humidity
58%
Altimeter
29.94" Hg
Pressure
1015.3 hPa
Previous

1 hour ago

CYPQ 180100Z AUTO 05006KT 9SM OVC100 M08/M15 A2997 RMK SLP168
Observed
Feb-18 @ 01:00 UTC
Wind
  • 050° at 6 KTS
Visibility
9 SM
Flight Rules
VFR
Cloud Levels
  • Overcast at 10,000' AGL
Temperature
-8°C / 18°F
Dewpoint
-15°C / 5°F
Humidity
58%
Altimeter
29.97" Hg
Pressure
1016.8 hPa
Previous

2 hours ago

CYPQ 180000Z AUTO 06006KT 9SM OVC100 M08/M15 A2998 RMK SLP172
Observed
Feb-18 @ 00:00 UTC
Wind
  • 060° at 6 KTS
Visibility
9 SM
Flight Rules
VFR
Cloud Levels
  • Overcast at 10,000' AGL
Temperature
-8°C / 18°F
Dewpoint
-15°C / 5°F
Humidity
58%
Altimeter
29.98" Hg
Pressure
1017.2 hPa